createdAt,value
2023-02-01T00:02:01.318Z,0.69
2023-02-01T00:06:03.787Z,0.76
2023-02-01T00:10:07.437Z,0.69
2023-02-01T00:14:09.555Z,0.71
2023-02-01T00:18:11.584Z,0.70
2023-02-01T00:22:13.671Z,0.57
2023-02-01T00:26:18.041Z,0.70
2023-02-01T00:30:20.486Z,0.84
2023-02-01T00:34:22.855Z,0.98
2023-02-01T00:38:26.737Z,1.02
2023-02-01T00:42:28.972Z,1.01
2023-02-01T00:46:31.557Z,1.09
2023-02-01T00:50:33.908Z,1.15
2023-02-01T00:54:37.894Z,1.08
2023-02-01T00:58:40.564Z,1.13
2023-02-01T01:02:42.858Z,1.17
2023-02-01T01:06:44.982Z,1.14
2023-02-01T01:10:47.192Z,1.19
2023-02-01T01:14:49.683Z,1.17
2023-02-01T01:18:52.135Z,1.13
2023-02-01T01:22:54.385Z,1.07
2023-02-01T01:26:57.109Z,1.00
2023-02-01T01:30:59.595Z,0.64
2023-02-01T01:35:02.240Z,0.77
2023-02-01T01:39:04.829Z,0.83
2023-02-01T01:43:14.634Z,0.42
2023-02-01T01:47:17.151Z,0.21
2023-02-01T01:51:21.546Z,0.19
2023-02-01T01:55:25.552Z,0.26
2023-02-01T01:59:28.553Z,0.27
2023-02-01T02:03:49.758Z,0.41
2023-02-01T02:07:54.427Z,0.32
2023-02-01T02:11:56.686Z,0.65
2023-02-01T02:16:23.257Z,0.85
2023-02-01T02:20:49.066Z,0.98
2023-02-01T02:25:03.624Z,0.94
2023-02-01T02:29:05.621Z,0.86
2023-02-01T02:33:20.066Z,0.91
2023-02-01T02:37:25.323Z,0.79
2023-02-01T02:41:47.035Z,1.00
2023-02-01T02:46:12.025Z,0.88
2023-02-01T02:50:44.903Z,0.99
2023-02-01T02:54:48.931Z,0.89
2023-02-01T02:59:12.781Z,0.80
2023-02-01T03:03:33.725Z,1.07
2023-02-01T03:07:45.858Z,1.28
2023-02-01T03:12:08.919Z,1.44
2023-02-01T03:16:14.199Z,1.51
2023-02-01T03:20:21.207Z,1.63
2023-02-01T03:24:34.383Z,1.62
2023-02-01T03:28:38.459Z,1.70
2023-02-01T03:33:02.044Z,1.66
2023-02-01T03:37:11.516Z,1.72
2023-02-01T03:41:14.181Z,1.43
2023-02-01T03:45:21.260Z,1.38
2023-02-01T03:49:34.672Z,1.65
2023-02-01T03:53:41.404Z,1.71
2023-02-01T03:57:50.285Z,1.74
2023-02-01T04:01:52.544Z,1.39
2023-02-01T04:05:55.069Z,1.42
2023-02-01T04:10:00.908Z,1.56
2023-02-01T04:14:05.584Z,1.39
2023-02-01T04:18:07.565Z,1.40
2023-02-01T04:22:09.639Z,1.59
2023-02-01T04:26:15.066Z,1.61
2023-02-01T04:30:20.582Z,1.55
2023-02-01T04:34:26.173Z,1.61
2023-02-01T04:38:30.420Z,1.50
2023-02-01T04:42:33.179Z,1.44
2023-02-01T04:46:35.295Z,1.25
2023-02-01T04:50:37.394Z,1.15
2023-02-01T04:54:44.127Z,1.19
2023-02-01T04:58:49.269Z,1.17
2023-02-01T05:02:51.503Z,1.29
2023-02-01T05:06:53.818Z,1.56
2023-02-01T05:10:55.846Z,1.44
2023-02-01T05:14:57.828Z,1.58
2023-02-01T05:18:59.939Z,1.73
2023-02-01T05:23:02.105Z,1.41
2023-02-01T05:27:04.108Z,1.57
2023-02-01T05:31:10.413Z,1.72
2023-02-01T05:35:12.501Z,1.61
2023-02-01T05:39:14.553Z,1.55
2023-02-01T05:43:16.990Z,1.41
2023-02-01T05:47:19.955Z,1.19
2023-02-01T05:51:22.153Z,1.00
2023-02-01T05:55:24.236Z,0.99
2023-02-01T05:59:26.942Z,0.88
2023-02-01T06:03:31.131Z,0.93
2023-02-01T06:07:36.306Z,1.01
2023-02-01T06:11:41.475Z,0.82
2023-02-01T06:15:54.396Z,0.98
2023-02-01T06:19:56.435Z,1.10
2023-02-01T06:23:59.465Z,1.23
2023-02-01T06:28:02.089Z,0.90
2023-02-01T06:32:04.481Z,0.83
2023-02-01T06:36:07.704Z,1.05
2023-02-01T06:40:09.986Z,1.20
2023-02-01T06:44:11.973Z,1.41
2023-02-01T06:48:14.455Z,1.33
2023-02-01T06:52:16.493Z,1.07
2023-02-01T06:56:19.123Z,1.14
2023-02-01T07:00:21.799Z,1.17
2023-02-01T07:04:24.566Z,1.32
2023-02-01T07:08:28.134Z,1.29
2023-02-01T07:12:30.183Z,1.29
2023-02-01T07:16:32.421Z,1.31
2023-02-01T07:20:34.354Z,1.64
2023-02-01T07:24:36.357Z,1.94
2023-02-01T07:28:38.784Z,1.87
2023-02-01T07:32:40.738Z,1.95
2023-02-01T07:36:43.047Z,1.96
2023-02-01T07:40:45.085Z,1.57
2023-02-01T07:44:47.073Z,1.60
2023-02-01T07:48:49.222Z,1.48
2023-02-01T07:52:51.320Z,1.79
2023-02-01T07:56:53.269Z,2.26
2023-02-01T08:01:13.904Z,2.51
2023-02-01T08:05:15.908Z,2.92
2023-02-01T08:09:17.977Z,2.95
2023-02-01T08:13:20.094Z,3.01
2023-02-01T08:17:22.103Z,3.06
2023-02-01T08:21:25.506Z,2.95
2023-02-01T08:25:28.709Z,3.24
2023-02-01T08:29:30.810Z,3.21
2023-02-01T08:33:33.139Z,3.47
2023-02-01T08:37:35.079Z,3.62
2023-02-01T08:41:37.287Z,4.08
2023-02-01T08:45:40.806Z,4.01
2023-02-01T08:49:43.063Z,4.40
2023-02-01T08:53:45.924Z,4.50
2023-02-01T08:57:48.036Z,4.51
2023-02-01T09:01:50.016Z,4.26
2023-02-01T09:05:54.070Z,4.56
2023-02-01T09:09:57.473Z,4.80
2023-02-01T09:13:59.575Z,4.94
2023-02-01T09:18:02.137Z,4.95
2023-02-01T09:22:04.416Z,4.97
2023-02-01T09:26:06.438Z,5.04
2023-02-01T09:30:08.839Z,4.79
2023-02-01T09:34:10.811Z,4.98
2023-02-01T09:38:12.783Z,4.49
2023-02-01T09:42:22.496Z,4.19
2023-02-01T09:46:27.175Z,4.64
2023-02-01T09:50:34.735Z,4.96
2023-02-01T09:54:43.368Z,4.91
2023-02-01T09:59:05.421Z,4.59
2023-02-01T10:03:12.523Z,4.56
2023-02-01T10:07:20.514Z,4.62
2023-02-01T10:11:25.435Z,4.42
2023-02-01T10:15:42.300Z,4.34
2023-02-01T10:20:04.852Z,4.30
2023-02-01T10:24:20.575Z,4.46
2023-02-01T10:28:25.155Z,4.43
2023-02-01T10:32:32.096Z,4.59
2023-02-01T10:36:41.703Z,4.66
2023-02-01T10:40:43.751Z,4.60
2023-02-01T10:44:46.611Z,4.76
2023-02-01T10:48:51.202Z,4.99
2023-02-01T10:53:01.189Z,5.07
2023-02-01T10:57:03.211Z,5.12
2023-02-01T11:01:07.228Z,5.23
2023-02-01T11:05:11.241Z,5.18
2023-02-01T11:09:24.019Z,5.34
2023-02-01T11:13:30.308Z,5.45
2023-02-01T11:17:37.829Z,5.62
2023-02-01T11:21:39.852Z,5.68
2023-02-01T11:25:49.467Z,5.76
2023-02-01T11:29:52.976Z,5.74
2023-02-01T11:33:56.960Z,6.14
2023-02-01T11:38:00.128Z,6.28
2023-02-01T11:42:02.152Z,6.39
2023-02-01T11:46:04.999Z,6.54
2023-02-01T11:50:14.227Z,6.39
2023-02-01T11:54:31.758Z,6.21
2023-02-01T11:58:57.040Z,6.22
2023-02-01T12:03:05.213Z,6.03
2023-02-01T12:07:26.239Z,6.05
2023-02-01T12:11:28.280Z,6.14
2023-02-01T12:15:48.495Z,6.30
2023-02-01T12:20:00.434Z,6.55
2023-02-01T12:24:02.436Z,6.77
2023-02-01T12:28:10.143Z,6.61
2023-02-01T12:32:17.399Z,6.97
2023-02-01T12:36:22.610Z,7.32
2023-02-01T12:40:34.397Z,7.48
2023-02-01T12:44:40.630Z,7.95
2023-02-01T12:49:02.888Z,7.99
2023-02-01T12:53:21.696Z,8.04
2023-02-01T12:57:24.205Z,8.04
2023-02-01T13:01:29.342Z,7.88
2023-02-01T13:05:51.709Z,7.79
2023-02-01T13:10:06.815Z,7.74
2023-02-01T13:20:22.769Z,8.09
2023-02-01T13:24:32.148Z,8.57
2023-02-01T13:28:52.749Z,8.86
2023-02-01T13:33:54.546Z,9.16
2023-02-01T13:38:02.988Z,9.37
2023-02-01T13:42:12.945Z,9.53
2023-02-01T13:46:17.023Z,9.77
2023-02-01T13:50:22.199Z,9.88
2023-02-01T13:54:29.573Z,9.93
2023-02-01T13:58:42.995Z,9.95
2023-02-01T14:02:49.540Z,10.04
2023-02-01T14:06:54.020Z,9.99
2023-02-01T14:10:58.439Z,9.98
2023-02-01T14:15:19.506Z,10.00
2023-02-01T14:19:28.933Z,9.89
2023-02-01T14:23:31.691Z,9.75
2023-02-01T14:27:36.445Z,9.84
2023-02-01T14:31:41.959Z,10.00
2023-02-01T14:35:44.089Z,9.86
2023-02-01T14:39:46.250Z,9.66
2023-02-01T14:43:52.594Z,9.82
2023-02-01T14:47:57.420Z,9.82
2023-02-01T14:51:59.933Z,9.95
2023-02-01T14:56:11.613Z,9.90
2023-02-01T15:00:14.913Z,9.83
2023-02-01T15:04:26.442Z,9.78
2023-02-01T15:08:33.882Z,9.81
2023-02-01T15:12:41.377Z,9.49
2023-02-01T15:16:43.956Z,9.61
2023-02-01T15:21:09.300Z,9.73
2023-02-01T15:25:21.651Z,9.75
2023-02-01T15:29:28.931Z,9.67
2023-02-01T15:33:32.261Z,9.69
2023-02-01T15:37:34.279Z,9.57
2023-02-01T15:41:39.937Z,9.40
2023-02-01T15:45:42.002Z,9.25
2023-02-01T15:49:45.948Z,9.14
2023-02-01T15:53:49.870Z,8.94
2023-02-01T15:57:55.593Z,8.63
2023-02-01T16:01:58.605Z,8.35
2023-02-01T16:06:01.885Z,8.18
2023-02-01T16:10:24.360Z,8.09
2023-02-01T16:14:26.988Z,7.91
2023-02-01T16:18:33.452Z,7.70
2023-02-01T16:22:44.694Z,7.49
2023-02-01T16:26:46.717Z,7.20
2023-02-01T16:30:49.936Z,6.98
2023-02-01T16:34:51.927Z,6.90
2023-02-01T16:38:54.420Z,6.64
2023-02-01T16:42:56.618Z,6.24
2023-02-01T16:46:59.473Z,5.85
2023-02-01T16:51:09.567Z,5.68
2023-02-01T16:55:18.970Z,5.59
2023-02-01T16:59:21.042Z,5.58
2023-02-01T17:03:23.424Z,5.62
2023-02-01T17:07:25.428Z,5.63
2023-02-01T17:11:28.167Z,5.32
2023-02-01T17:15:34.935Z,5.27
2023-02-01T17:19:37.184Z,5.26
2023-02-01T17:23:39.774Z,5.13
2023-02-01T17:27:44.336Z,5.00
2023-02-01T17:31:49.836Z,4.92
2023-02-01T17:35:58.514Z,4.97
2023-02-01T17:40:06.557Z,5.11
2023-02-01T17:44:11.917Z,5.06
2023-02-01T17:48:14.074Z,5.07
2023-02-01T17:52:19.472Z,5.09
2023-02-01T17:56:31.670Z,5.16
2023-02-01T18:00:33.860Z,5.09
2023-02-01T18:04:39.297Z,5.16
2023-02-01T18:08:41.677Z,5.15
2023-02-01T18:12:46.935Z,5.14
2023-02-01T18:16:52.449Z,5.08
2023-02-01T18:20:57.337Z,5.13
2023-02-01T18:24:59.403Z,5.11
2023-02-01T18:29:01.589Z,4.81
2023-02-01T18:33:12.855Z,4.33
2023-02-01T18:37:14.946Z,4.06
2023-02-01T18:41:32.157Z,3.67
2023-02-01T18:45:52.018Z,3.59
2023-02-01T18:49:57.928Z,3.66
2023-02-01T18:53:59.979Z,3.84
2023-02-01T18:58:03.504Z,4.04
2023-02-01T19:02:06.062Z,4.11
2023-02-01T19:06:08.805Z,4.11
2023-02-01T19:10:27.832Z,3.90
2023-02-01T19:14:30.476Z,3.82
2023-02-01T19:18:39.018Z,3.73
2023-02-01T19:22:41.266Z,3.47
2023-02-01T19:26:54.377Z,3.60
2023-02-01T19:31:07.288Z,3.54
2023-02-01T19:35:10.779Z,3.47
2023-02-01T19:39:13.038Z,3.55
2023-02-01T19:43:15.074Z,3.65
2023-02-01T19:47:17.179Z,3.60
2023-02-01T19:51:27.923Z,3.57
2023-02-01T19:55:30.885Z,3.63
2023-02-01T19:59:36.605Z,3.60
2023-02-01T20:03:37.691Z,3.60
2023-02-01T20:07:39.882Z,3.64
2023-02-01T20:11:42.449Z,3.51
2023-02-01T20:15:45.191Z,3.66
2023-02-01T20:19:48.223Z,3.92
2023-02-01T20:23:51.152Z,4.02
2023-02-01T20:28:01.739Z,4.00
2023-02-01T20:32:04.349Z,4.04
2023-02-01T20:36:09.089Z,4.07
2023-02-01T20:40:12.032Z,3.85
2023-02-01T20:44:13.991Z,3.84
2023-02-01T20:48:16.109Z,3.87
2023-02-01T20:52:24.404Z,3.79
2023-02-01T20:56:43.947Z,3.67
2023-02-01T21:00:46.490Z,3.52
2023-02-01T21:05:08.116Z,3.51
2023-02-01T21:09:48.382Z,3.55
2023-02-01T21:13:53.761Z,3.43
2023-02-01T21:17:55.748Z,3.53
2023-02-01T21:21:57.959Z,3.51
2023-02-01T21:26:06.017Z,3.55
2023-02-01T21:30:09.150Z,3.60
2023-02-01T21:34:12.906Z,3.56
2023-02-01T21:38:25.152Z,3.48
2023-02-01T21:42:31.631Z,3.61
2023-02-01T21:46:33.946Z,3.61
2023-02-01T21:50:36.187Z,3.48
2023-02-01T21:54:44.645Z,3.43
2023-02-01T21:58:52.536Z,3.36
2023-02-01T22:02:55.218Z,3.31
2023-02-01T22:07:07.859Z,3.06
2023-02-01T22:11:10.076Z,3.02
2023-02-01T22:15:12.035Z,3.01
2023-02-01T22:19:14.828Z,3.09
2023-02-01T22:23:17.252Z,3.00
2023-02-01T22:27:19.465Z,2.79
2023-02-01T22:31:23.239Z,2.69
2023-02-01T22:35:25.616Z,2.80
2023-02-01T22:39:27.928Z,2.95
2023-02-01T22:43:31.558Z,2.91
2023-02-01T22:47:36.199Z,2.91
2023-02-01T22:51:38.745Z,2.96
2023-02-01T22:55:45.519Z,2.99
2023-02-01T22:59:47.604Z,3.01
2023-02-01T23:03:56.078Z,3.02
2023-02-01T23:08:05.596Z,2.99
2023-02-01T23:12:07.709Z,2.85
2023-02-01T23:16:12.739Z,2.93
2023-02-01T23:20:40.936Z,2.87
2023-02-01T23:24:45.951Z,2.75
2023-02-01T23:28:49.818Z,2.84
2023-02-01T23:32:51.895Z,2.71
2023-02-01T23:36:53.925Z,2.46
2023-02-01T23:41:09.935Z,2.31
2023-02-01T23:45:16.681Z,2.42
2023-02-01T23:50:04.616Z,2.15
2023-02-01T23:54:10.126Z,2.04
2023-02-01T23:58:12.114Z,1.93
